createdAt,value
2022-08-03T00:00:56.056Z,95817.91
2022-08-03T00:01:58.076Z,95826.28
2022-08-03T00:03:01.072Z,95817.16
2022-08-03T00:04:05.467Z,95821.22
2022-08-03T00:05:09.388Z,95812.09
2022-08-03T00:06:11.468Z,95816.13
2022-08-03T00:07:14.398Z,95815.38
2022-08-03T00:08:16.370Z,95818.91
2022-08-03T00:09:22.558Z,95814.63
2022-08-03T00:10:24.459Z,95818.66
2022-08-03T00:11:27.458Z,95817.13
2022-08-03T00:12:29.422Z,95816.34
2022-08-03T00:13:32.357Z,95818.91
2022-08-03T00:14:35.625Z,95816.59
2022-08-03T00:15:38.566Z,95816.31
2022-08-03T00:16:40.615Z,95812.25
2022-08-03T00:17:53.051Z,95807.94
2022-08-03T00:18:56.887Z,95815.53
2022-08-03T00:20:00.256Z,95812.00
2022-08-03T00:21:03.276Z,95816.03
2022-08-03T00:22:05.179Z,95811.72
2022-08-03T00:23:08.129Z,95808.16
2022-08-03T00:24:10.253Z,95813.50
2022-08-03T00:25:13.170Z,95814.25
2022-08-03T00:26:16.094Z,95812.72
2022-08-03T00:27:17.999Z,95809.16
2022-08-03T00:28:20.897Z,95813.97
2022-08-03T00:29:22.815Z,95804.88
2022-08-03T00:30:27.568Z,95810.94
2022-08-03T00:31:45.031Z,95806.88
2022-08-03T00:32:54.936Z,95808.13
2022-08-03T00:34:03.179Z,95809.41
2022-08-03T00:35:09.261Z,95810.94
2022-08-03T00:36:14.382Z,95809.41
2022-08-03T00:37:17.275Z,95811.94
2022-08-03T00:38:20.259Z,95806.34
2022-08-03T00:39:22.373Z,95815.97
2022-08-03T00:40:25.637Z,95808.88
2022-08-03T00:41:27.687Z,95796.19
2022-08-03T00:42:30.784Z,95808.59
2022-08-03T00:43:33.744Z,95811.38
2022-08-03T00:44:39.909Z,95804.28
2022-08-03T00:45:45.091Z,95804.28
2022-08-03T00:46:46.979Z,95799.22
2022-08-03T00:47:50.165Z,95799.97
2022-08-03T00:48:53.629Z,95802.00
2022-08-03T00:49:56.615Z,95805.28
2022-08-03T00:51:00.301Z,95803.75
2022-08-03T00:52:09.346Z,95807.78
2022-08-03T00:53:13.517Z,95802.75
2022-08-03T00:54:17.899Z,95800.72
2022-08-03T00:55:20.927Z,95809.81
2022-08-03T00:56:22.965Z,95807.03
2022-08-03T00:57:26.124Z,95803.22
2022-08-03T00:58:29.065Z,95798.91
2022-08-03T00:59:31.326Z,95800.16
2022-08-03T01:00:35.947Z,95802.19
2022-08-03T01:01:37.901Z,95795.09
2022-08-03T01:02:41.667Z,95797.13
2022-08-03T01:03:43.507Z,95801.94
2022-08-03T01:04:46.403Z,95796.34
2022-08-03T01:05:56.009Z,95796.34
2022-08-03T01:07:10.811Z,95794.06
2022-08-03T01:08:24.210Z,95794.56
2022-08-03T01:09:36.003Z,95795.06
2022-08-03T01:10:45.629Z,95795.06
2022-08-03T01:12:00.879Z,95793.50
2022-08-03T01:14:01.944Z,95796.81
2022-08-03T01:14:50.426Z,95787.44
2022-08-03T01:15:59.907Z,95795.50
2022-08-03T01:17:11.739Z,95789.19
2022-08-03T01:18:19.508Z,95785.88
2022-08-03T01:19:36.705Z,95782.84
2022-08-03T01:20:44.821Z,95788.41
2022-08-03T01:22:02.327Z,95784.09
2022-08-03T01:23:23.057Z,95786.91
2022-08-03T01:24:37.604Z,95789.41
2022-08-03T01:26:01.242Z,95783.84
2022-08-03T01:27:09.142Z,95787.88
2022-08-03T01:28:26.604Z,95786.34
2022-08-03T01:30:00.970Z,95784.84
2022-08-03T01:31:07.149Z,95783.28
2022-08-03T01:33:02.783Z,95790.88
2022-08-03T01:33:41.598Z,95783.81
2022-08-03T01:34:47.481Z,95787.84
2022-08-03T01:35:55.480Z,95784.28
2022-08-03T01:36:59.931Z,95792.66
2022-08-03T01:38:07.126Z,95788.31
2022-08-03T01:39:09.542Z,95782.00
2022-08-03T01:40:15.287Z,95774.91
2022-08-03T01:41:21.336Z,95780.47
2022-08-03T01:42:25.805Z,95780.97
2022-08-03T01:43:55.474Z,95783.00
2022-08-03T01:44:56.292Z,95786.25
2022-08-03T01:45:58.414Z,95786.25
2022-08-03T01:47:03.393Z,95782.72
2022-08-03T01:48:07.256Z,95780.41
2022-08-03T01:49:12.795Z,95780.41
2022-08-03T01:50:15.869Z,95780.41
2022-08-03T01:51:23.397Z,95777.63
2022-08-03T01:52:26.651Z,95776.13
2022-08-03T01:53:32.267Z,95776.13
2022-08-03T01:54:37.780Z,95778.63
2022-08-03T01:55:41.683Z,95773.06
2022-08-03T01:56:45.247Z,95774.34
2022-08-03T01:58:06.062Z,95776.34
2022-08-03T01:59:11.732Z,95772.78
2022-08-03T02:00:16.482Z,95774.06
2022-08-03T02:01:23.740Z,95773.28
2022-08-03T02:02:33.506Z,95775.31
2022-08-03T02:03:59.954Z,95775.31
2022-08-03T02:05:11.105Z,95779.34
2022-08-03T02:07:02.896Z,95779.84
2022-08-03T02:07:38.740Z,95779.09
2022-08-03T02:08:41.978Z,95783.09
2022-08-03T02:09:47.952Z,95782.88
2022-08-03T02:10:51.779Z,95783.84
2022-08-03T02:11:56.030Z,95776.44
2022-08-03T02:13:01.440Z,95773.41
2022-08-03T02:14:07.248Z,95778.97
2022-08-03T02:15:11.861Z,95780.22
2022-08-03T02:16:20.394Z,95779.44
2022-08-03T02:17:38.411Z,95777.44
2022-08-03T02:18:43.558Z,95783.78
2022-08-03T02:19:47.513Z,95771.09
2022-08-03T02:20:50.700Z,95777.44
2022-08-03T02:21:57.005Z,95777.44
2022-08-03T02:23:03.283Z,95779.97
2022-08-03T02:24:08.477Z,95778.69
2022-08-03T02:25:12.227Z,95779.97
2022-08-03T02:26:20.596Z,95770.06
2022-08-03T02:27:26.125Z,95771.34
2022-08-03T02:28:35.857Z,95776.16
2022-08-03T02:29:41.191Z,95775.34
2022-08-03T02:30:46.670Z,95779.41
2022-08-03T02:32:01.351Z,95779.13
2022-08-03T02:33:04.973Z,95773.28
2022-08-03T02:34:12.344Z,95776.06
2022-08-03T02:35:18.137Z,95781.63
2022-08-03T02:36:23.733Z,95783.66
2022-08-03T02:37:29.940Z,95782.91
2022-08-03T02:38:33.943Z,95777.34
2022-08-03T02:39:37.877Z,95777.06
2022-08-03T02:40:42.258Z,95778.59
2022-08-03T02:41:48.670Z,95782.63
2022-08-03T02:42:59.486Z,95779.84
2022-08-03T02:44:06.600Z,95776.78
2022-08-03T02:45:13.941Z,95780.81
2022-08-03T02:46:20.859Z,95779.31
2022-08-03T02:47:27.904Z,95779.31
2022-08-03T02:48:33.947Z,95776.53
2022-08-03T02:49:50.419Z,95778.53
2022-08-03T02:50:58.004Z,95778.53
2022-08-03T02:52:02.672Z,95779.78
2022-08-03T02:53:06.458Z,95777.78
2022-08-03T02:54:09.655Z,95782.56
2022-08-03T02:55:14.540Z,95775.47
2022-08-03T02:56:18.108Z,95778.75
2022-08-03T02:57:22.438Z,95775.41
2022-08-03T02:58:25.913Z,95775.94
2022-08-03T02:59:31.292Z,95778.44
2022-08-03T03:00:34.424Z,95776.41
2022-08-03T03:01:39.122Z,95776.88
2022-08-03T03:02:44.594Z,95763.50
2022-08-03T03:03:49.136Z,95775.38
2022-08-03T03:05:51.078Z,95770.56
2022-08-03T03:06:17.921Z,95777.69
2022-08-03T03:07:22.221Z,95777.69
2022-08-03T03:08:28.800Z,95777.41
2022-08-03T03:09:41.912Z,95773.88
2022-08-03T03:10:47.635Z,95782.97
2022-08-03T03:11:50.876Z,95773.06
2022-08-03T03:12:58.758Z,95773.59
2022-08-03T03:14:01.282Z,95772.78
2022-08-03T03:15:04.422Z,95777.13
2022-08-03T03:16:07.022Z,95776.38
2022-08-03T03:17:11.286Z,95779.63
2022-08-03T03:18:21.733Z,95779.63
2022-08-03T03:19:26.598Z,95772.56
2022-08-03T03:20:30.594Z,95779.63
2022-08-03T03:21:34.974Z,95774.53
2022-08-03T03:22:38.618Z,95778.59
2022-08-03T03:23:43.231Z,95768.72
2022-08-03T03:24:47.228Z,95772.00
2022-08-03T03:25:51.205Z,95772.00
2022-08-03T03:26:53.393Z,95767.66
2022-08-03T03:27:56.691Z,95767.66
2022-08-03T03:29:01.206Z,95774.50
2022-08-03T03:30:04.420Z,95770.97
2022-08-03T03:31:07.400Z,95773.75
2022-08-03T03:32:10.955Z,95772.19
2022-08-03T03:33:14.522Z,95765.13
2022-08-03T03:34:19.231Z,95777.00
2022-08-03T03:35:21.496Z,95763.59
2022-08-03T03:36:24.480Z,95767.13
2022-08-03T03:37:26.689Z,95774.44
2022-08-03T03:38:29.957Z,95775.22
2022-08-03T03:39:32.097Z,95775.69
2022-08-03T03:40:36.798Z,95769.38
2022-08-03T03:41:39.707Z,95779.72
2022-08-03T03:42:42.781Z,95766.31
2022-08-03T03:43:45.181Z,95772.63
2022-08-03T03:44:48.147Z,95771.88
2022-08-03T03:45:51.581Z,95777.44
2022-08-03T03:46:54.778Z,95769.56
2022-08-03T03:47:56.846Z,95775.91
2022-08-03T03:49:01.119Z,95773.63
2022-08-03T03:50:04.286Z,95774.38
2022-08-03T03:51:08.350Z,95770.84
2022-08-03T03:52:11.784Z,95770.56
2022-08-03T03:53:14.403Z,95778.16
2022-08-03T03:54:19.463Z,95773.34
2022-08-03T03:55:21.419Z,95772.59
2022-08-03T03:56:24.936Z,95778.16
2022-08-03T03:57:26.913Z,95776.59
2022-08-03T03:58:29.882Z,95769.53
2022-08-03T03:59:32.045Z,95772.31
2022-08-03T04:00:39.138Z,95776.31
2022-08-03T04:01:41.235Z,95774.81
2022-08-03T04:02:44.574Z,95770.50
2022-08-03T04:03:48.470Z,95773.25
2022-08-03T04:05:10.264Z,95771.75
2022-08-03T04:06:31.624Z,95777.31
2022-08-03T04:08:03.506Z,95770.22
2022-08-03T04:09:24.854Z,95770.22
2022-08-03T04:10:50.106Z,95774.25
2022-08-03T04:11:55.025Z,95776.28
2022-08-03T04:12:59.382Z,95777.50
2022-08-03T04:14:07.395Z,95768.41
2022-08-03T04:15:12.179Z,95776.75
2022-08-03T04:16:17.837Z,95778.03
2022-08-03T04:17:20.670Z,95774.44
2022-08-03T04:18:24.756Z,95770.16
2022-08-03T04:19:31.990Z,95769.41
2022-08-03T04:20:37.579Z,95776.19
2022-08-03T04:21:44.463Z,95782.53
2022-08-03T04:22:48.241Z,95774.69
2022-08-03T04:23:54.203Z,95780.25
2022-08-03T04:25:01.366Z,95779.47
2022-08-03T04:26:06.471Z,95776.69
2022-08-03T04:27:11.738Z,95773.13
2022-08-03T04:28:30.673Z,95773.13
2022-08-03T04:29:48.299Z,95777.94
2022-08-03T04:30:52.442Z,95773.66
2022-08-03T04:31:56.855Z,95777.19
2022-08-03T04:33:01.197Z,95771.63
2022-08-03T04:34:07.483Z,95777.19
2022-08-03T04:35:10.510Z,95771.63
2022-08-03T04:36:19.045Z,95777.19
2022-08-03T04:37:33.210Z,95777.66
2022-08-03T04:38:41.546Z,95776.41
2022-08-03T04:39:44.869Z,95774.13
2022-08-03T04:40:49.039Z,95774.88
2022-08-03T04:42:07.718Z,95773.66
2022-08-03T04:43:15.450Z,95781.22
2022-08-03T04:44:21.388Z,95778.91
2022-08-03T04:45:32.892Z,95781.22
2022-08-03T04:46:39.608Z,95781.97
2022-08-03T04:47:51.236Z,95788.28
2022-08-03T04:48:53.761Z,95787.53
2022-08-03T04:49:57.107Z,95791.84
2022-08-03T04:51:00.835Z,95792.59
2022-08-03T04:52:06.417Z,95787.81
2022-08-03T04:53:08.953Z,95791.34
2022-08-03T04:54:13.690Z,95794.41
2022-08-03T04:55:25.857Z,95797.47
2022-08-03T04:56:28.809Z,95800.53
2022-08-03T04:57:30.877Z,95794.75
2022-08-03T04:58:34.246Z,95800.09
2022-08-03T04:59:39.114Z,95800.63
2022-08-03T05:00:45.729Z,95802.47
2022-08-03T05:01:47.864Z,95796.94
2022-08-03T05:02:50.828Z,95802.31
2022-08-03T05:03:52.678Z,95807.44
2022-08-03T05:04:55.647Z,95802.69
2022-08-03T05:06:09.606Z,95808.09
2022-08-03T05:07:15.640Z,95800.56
2022-08-03T05:08:20.744Z,95801.88
2022-08-03T05:09:49.837Z,95804.72
2022-08-03T05:10:52.752Z,95808.31
2022-08-03T05:11:55.571Z,95808.88
2022-08-03T05:12:57.486Z,95812.22
2022-08-03T05:14:00.366Z,95805.91
2022-08-03T05:15:02.484Z,95812.03
2022-08-03T05:16:05.990Z,95813.34
2022-08-03T05:17:08.593Z,95813.13
2022-08-03T05:18:14.178Z,95812.13
2022-08-03T05:19:16.344Z,95804.06
2022-08-03T05:20:19.280Z,95806.09
2022-08-03T05:21:21.256Z,95804.34
2022-08-03T05:22:25.440Z,95810.47
2022-08-03T05:23:27.633Z,95810.22
2022-08-03T05:24:30.694Z,95814.06
2022-08-03T05:25:32.638Z,95814.56
2022-08-03T05:26:35.695Z,95808.03
2022-08-03T05:27:37.648Z,95812.59
2022-08-03T05:28:40.554Z,95816.91
2022-08-03T05:29:52.984Z,95821.00
2022-08-03T05:30:56.979Z,95820.00
2022-08-03T05:31:58.919Z,95817.50
2022-08-03T05:33:02.120Z,95822.06
2022-08-03T05:34:04.039Z,95813.97
2022-08-03T05:35:57.938Z,95822.88
2022-08-03T05:36:31.211Z,95817.81
2022-08-03T05:37:34.501Z,95820.41
2022-08-03T05:38:39.107Z,95817.88
2022-08-03T05:39:41.008Z,95817.66
2022-08-03T05:40:56.829Z,95818.19
2022-08-03T05:41:59.869Z,95817.19
2022-08-03T05:43:03.367Z,95813.41
2022-08-03T05:44:05.320Z,95816.72
2022-08-03T05:45:15.454Z,95814.22
2022-08-03T05:46:17.463Z,95812.44
2022-08-03T05:47:20.376Z,95819.31
2022-08-03T05:48:22.207Z,95821.09
2022-08-03T05:49:25.216Z,95822.09
2022-08-03T05:50:27.239Z,95821.88
2022-08-03T05:51:30.120Z,95825.69
2022-08-03T05:52:32.003Z,95816.31
2022-08-03T05:53:36.447Z,95818.88
2022-08-03T05:54:56.794Z,95814.06
2022-08-03T05:56:03.503Z,95812.28
2022-08-03T05:57:17.690Z,95814.59
2022-08-03T05:58:19.520Z,95813.56
2022-08-03T05:59:38.259Z,95815.13
2022-08-03T06:00:41.652Z,95814.84
2022-08-03T06:01:43.594Z,95817.91
2022-08-03T06:02:46.502Z,95816.13
2022-08-03T06:03:48.995Z,95817.16
2022-08-03T06:04:51.849Z,95818.19
2022-08-03T06:06:00.203Z,95814.91
2022-08-03T06:07:03.699Z,95821.50
2022-08-03T06:08:05.971Z,95822.53
2022-08-03T06:09:10.725Z,95820.00
2022-08-03T06:10:35.998Z,95830.16
2022-08-03T06:11:35.607Z,95822.06
2022-08-03T06:12:37.638Z,95825.09
2022-08-03T06:13:40.911Z,95827.41
2022-08-03T06:14:42.817Z,95828.16
2022-08-03T06:15:45.811Z,95828.41
2022-08-03T06:16:47.687Z,95820.31
2022-08-03T06:17:51.498Z,95822.59
2022-08-03T06:18:54.605Z,95823.63
2022-08-03T06:19:56.502Z,95824.38
2022-08-03T06:21:13.966Z,95829.47
2022-08-03T06:22:19.161Z,95826.41
2022-08-03T06:23:53.277Z,95823.13
2022-08-03T06:24:53.718Z,95828.44
2022-08-03T06:25:56.839Z,95825.16
2022-08-03T06:26:59.775Z,95821.09
2022-08-03T06:28:01.821Z,95831.75
2022-08-03T06:29:04.684Z,95830.50
2022-08-03T06:30:11.999Z,95827.94
2022-08-03T06:31:14.861Z,95830.50
2022-08-03T06:32:16.823Z,95830.75
2022-08-03T06:33:20.349Z,95833.06
2022-08-03T06:34:33.228Z,95833.81
2022-08-03T06:35:37.533Z,95836.88
2022-08-03T06:36:44.474Z,95828.75
2022-08-03T06:37:48.814Z,95839.38
2022-08-03T06:38:50.857Z,95842.94
2022-08-03T06:39:55.223Z,95834.06
2022-08-03T06:40:57.351Z,95834.81
2022-08-03T06:42:00.282Z,95837.88
2022-08-03T06:43:03.977Z,95839.41
2022-08-03T06:44:06.851Z,95840.94
2022-08-03T06:45:09.751Z,95836.09
2022-08-03T06:46:12.596Z,95840.44
2022-08-03T06:47:14.486Z,95839.16
2022-08-03T06:48:17.378Z,95841.44
2022-08-03T06:49:19.629Z,95840.16
2022-08-03T06:50:26.082Z,95841.69
2022-08-03T06:52:04.147Z,95837.63
2022-08-03T06:52:52.166Z,95832.56
2022-08-03T06:53:54.060Z,95834.09
2022-08-03T06:54:58.421Z,95832.81
2022-08-03T06:56:00.553Z,95833.56
2022-08-03T06:57:03.737Z,95841.44
2022-08-03T06:58:06.778Z,95836.16
2022-08-03T06:59:08.709Z,95834.13
2022-08-03T07:00:32.101Z,95829.28
2022-08-03T07:01:34.225Z,95834.88
2022-08-03T07:02:37.284Z,95832.84
2022-08-03T07:03:52.117Z,95836.41
2022-08-03T07:04:54.461Z,95837.94
2022-08-03T07:05:57.414Z,95833.63
2022-08-03T07:06:59.293Z,95830.03
2022-08-03T07:08:03.219Z,95830.81
2022-08-03T07:09:05.917Z,95833.09
2022-08-03T07:10:11.584Z,95827.00
2022-08-03T07:11:14.451Z,95832.84
2022-08-03T07:12:16.634Z,95832.34
2022-08-03T07:13:19.709Z,95830.31
2022-08-03T07:14:23.545Z,95829.28
2022-08-03T07:15:38.366Z,95830.81
2022-08-03T07:16:49.721Z,95831.06
2022-08-03T07:17:52.666Z,95828.25
2022-08-03T07:18:54.593Z,95831.31
2022-08-03T07:19:57.784Z,95828.78
2022-08-03T07:20:59.799Z,95839.94
2022-08-03T07:22:04.482Z,95830.31
2022-08-03T07:23:07.337Z,95827.53
2022-08-03T07:24:10.348Z,95832.56
2022-08-03T07:25:13.687Z,95830.31
2022-08-03T07:26:16.704Z,95824.72
2022-08-03T07:27:18.611Z,95820.66
2022-08-03T07:28:21.669Z,95823.69
2022-08-03T07:29:23.541Z,95819.63
2022-08-03T07:30:26.437Z,95825.47
2022-08-03T07:31:28.485Z,95822.66
2022-08-03T07:32:37.556Z,95824.22
2022-08-03T07:33:53.473Z,95825.72
2022-08-03T07:35:00.114Z,95824.22
2022-08-03T07:36:03.424Z,95826.75
2022-08-03T07:37:06.383Z,95823.94
2022-08-03T07:38:08.374Z,95818.38
2022-08-03T07:39:16.519Z,95820.66
2022-08-03T07:40:21.423Z,95818.63
2022-08-03T07:41:24.421Z,95821.66
2022-08-03T07:42:28.045Z,95823.19
2022-08-03T07:43:31.355Z,95820.63
2022-08-03T07:44:33.432Z,95823.44
2022-08-03T07:45:36.313Z,95821.13
2022-08-03T07:46:38.355Z,95823.94
2022-08-03T07:47:41.377Z,95829.53
2022-08-03T07:48:49.131Z,95817.09
2022-08-03T07:49:51.381Z,95817.34
2022-08-03T07:50:54.328Z,95819.59
2022-08-03T07:52:11.210Z,95821.16
2022-08-03T07:53:14.343Z,95817.81
2022-08-03T07:54:17.224Z,95815.81
2022-08-03T07:55:22.389Z,95824.44
2022-08-03T07:56:25.937Z,95814.78
2022-08-03T07:57:27.941Z,95815.78
2022-08-03T07:58:30.840Z,95815.53
2022-08-03T07:59:56.641Z,95814.25
2022-08-03T08:00:55.762Z,95820.84
2022-08-03T08:01:57.717Z,95818.06
2022-08-03T08:03:00.805Z,95815.78
2022-08-03T08:04:02.798Z,95818.59
2022-08-03T08:05:06.572Z,95816.00
2022-08-03T08:06:09.496Z,95820.59
2022-08-03T08:07:12.785Z,95826.19
2022-08-03T08:08:15.979Z,95816.78
2022-08-03T08:09:18.074Z,95821.59
2022-08-03T08:10:22.676Z,95811.41
2022-08-03T08:11:24.555Z,95822.09
2022-08-03T08:12:27.486Z,95816.50
2022-08-03T08:13:30.476Z,95819.28
2022-08-03T08:14:32.430Z,95814.19
2022-08-03T08:15:35.525Z,95819.03
2022-08-03T08:16:47.045Z,95810.16
2022-08-03T08:17:52.059Z,95816.50
2022-08-03T08:18:54.990Z,95807.59
2022-08-03T08:19:56.905Z,95817.78
2022-08-03T08:21:01.566Z,95814.47
2022-08-03T08:22:03.576Z,95815.25
2022-08-03T08:23:37.865Z,95814.19
2022-08-03T08:24:31.452Z,95814.47
2022-08-03T08:25:36.020Z,95805.06
2022-08-03T08:26:38.143Z,95804.56
2022-08-03T08:28:29.233Z,95811.16
2022-08-03T08:29:08.523Z,95812.16
2022-08-03T08:30:15.970Z,95804.78
2022-08-03T08:31:21.690Z,95809.84
2022-08-03T08:32:23.655Z,95812.13
2022-08-03T08:33:37.248Z,95806.78
2022-08-03T08:34:45.341Z,95811.38
2022-08-03T08:35:47.307Z,95805.00
2022-08-03T08:36:50.278Z,95799.66
2022-08-03T08:37:53.352Z,95806.25
2022-08-03T08:38:55.272Z,95803.69
2022-08-03T08:39:58.355Z,95802.69
2022-08-03T08:41:02.854Z,95803.44
2022-08-03T08:42:04.993Z,95800.13
2022-08-03T08:43:08.639Z,95803.69
2022-08-03T08:44:11.670Z,95797.56
2022-08-03T08:45:15.535Z,95801.88
2022-08-03T08:46:23.371Z,95806.97
2022-08-03T08:47:51.095Z,95802.13
2022-08-03T08:48:55.110Z,95794.47
2022-08-03T08:50:09.677Z,95797.00
2022-08-03T08:51:14.436Z,95791.66
2022-08-03T08:52:24.761Z,95790.13
2022-08-03T08:53:35.246Z,95795.94
2022-08-03T08:54:41.009Z,95796.50
2022-08-03T08:55:59.817Z,95790.88
2022-08-03T08:57:21.369Z,95794.41
2022-08-03T08:58:35.783Z,95786.25
2022-08-03T08:59:48.440Z,95778.91
2022-08-03T09:00:53.337Z,95790.34
2022-08-03T09:01:57.914Z,95787.47
2022-08-03T09:03:02.125Z,95789.75
2022-08-03T09:04:06.614Z,95779.81
2022-08-03T09:05:12.939Z,95785.19
2022-08-03T09:06:16.088Z,95787.72
2022-08-03T09:07:20.415Z,95787.47
2022-08-03T09:08:24.249Z,95787.22
2022-08-03T09:10:08.229Z,95787.22
2022-08-03T09:10:50.119Z,95784.69
2022-08-03T09:12:00.860Z,95784.94
2022-08-03T09:13:13.240Z,95784.06
2022-08-03T09:14:36.773Z,95778.97
2022-08-03T09:15:39.170Z,95788.88
2022-08-03T09:16:56.936Z,95788.63
2022-08-03T09:18:01.648Z,95786.34
2022-08-03T09:19:13.905Z,95787.88
2022-08-03T09:20:16.037Z,95785.81
2022-08-03T09:21:31.650Z,95791.41
2022-08-03T09:22:34.374Z,95793.72
2022-08-03T09:24:01.404Z,95785.59
2022-08-03T09:25:23.731Z,95792.22
2022-08-03T09:26:29.427Z,95792.72
2022-08-03T09:27:42.686Z,95783.03
2022-08-03T09:29:00.818Z,95791.19
2022-08-03T09:30:33.707Z,95787.13
2022-08-03T09:31:43.018Z,95780.47
2022-08-03T09:32:47.984Z,95789.38
2022-08-03T09:33:50.118Z,95788.06
2022-08-03T09:34:57.871Z,95785.81
2022-08-03T09:36:01.193Z,95783.50
2022-08-03T09:37:14.852Z,95782.47
2022-08-03T09:38:23.949Z,95783.69
2022-08-03T09:39:40.992Z,95789.03
2022-08-03T09:40:45.583Z,95791.84
2022-08-03T09:41:50.262Z,95789.78
2022-08-03T09:42:57.722Z,95783.94
2022-08-03T09:44:01.008Z,95789.03
2022-08-03T09:45:04.128Z,95794.63
2022-08-03T09:46:07.634Z,95790.53
2022-08-03T09:47:12.480Z,95794.56
2022-08-03T09:48:22.173Z,95791.50
2022-08-03T09:49:25.810Z,95795.56
2022-08-03T09:50:27.835Z,95801.19
2022-08-03T09:52:28.800Z,95789.97
2022-08-03T09:52:54.040Z,95790.94
2022-08-03T09:54:00.439Z,95795.72
2022-08-03T09:56:01.766Z,95788.09
2022-08-03T09:56:42.767Z,95794.97
2022-08-03T09:57:46.414Z,95788.09
2022-08-03T09:58:48.650Z,95792.44
2022-08-03T10:00:04.558Z,95797.78
2022-08-03T10:01:24.320Z,95792.44
2022-08-03T10:02:28.946Z,95799.34
2022-08-03T10:03:32.333Z,95793.50
2022-08-03T10:04:35.207Z,95785.59
2022-08-03T10:05:39.070Z,95786.91
2022-08-03T10:06:42.153Z,95785.91
2022-08-03T10:07:46.847Z,95789.97
2022-08-03T10:09:07.190Z,95789.97
2022-08-03T10:10:30.254Z,95784.13
2022-08-03T10:11:40.947Z,95783.91
2022-08-03T10:12:48.098Z,95782.63
2022-08-03T10:13:50.168Z,95786.19
2022-08-03T10:15:02.833Z,95780.06
2022-08-03T10:16:22.945Z,95787.41
2022-08-03T10:17:27.928Z,95772.59
2022-08-03T10:18:30.046Z,95777.41
2022-08-03T10:19:33.020Z,95768.72
2022-08-03T10:20:39.448Z,95778.41
2022-08-03T10:21:44.197Z,95780.47
2022-08-03T10:22:48.250Z,95780.63
2022-08-03T10:23:53.585Z,95778.34
2022-08-03T10:25:01.009Z,95780.41
2022-08-03T10:26:05.501Z,95775.31
2022-08-03T10:27:08.979Z,95777.34
2022-08-03T10:28:15.113Z,95780.66
2022-08-03T10:29:24.564Z,95773.56
2022-08-03T10:30:29.447Z,95770.75
2022-08-03T10:31:35.688Z,95772.81
2022-08-03T10:32:42.968Z,95769.25
2022-08-03T10:33:52.839Z,95775.06
2022-08-03T10:35:04.166Z,95779.66
2022-08-03T10:36:24.598Z,95775.22
2022-08-03T10:37:29.578Z,95773.66
2022-08-03T10:38:37.641Z,95777.47
2022-08-03T10:39:53.348Z,95772.63
2022-08-03T10:40:59.035Z,95767.78
2022-08-03T10:42:03.134Z,95780.81
2022-08-03T10:43:10.256Z,95773.97
2022-08-03T10:44:18.778Z,95763.78
2022-08-03T10:45:24.839Z,95770.41
2022-08-03T10:46:28.930Z,95768.69
2022-08-03T10:47:32.964Z,95766.91
2022-08-03T10:48:36.291Z,95760.53
2022-08-03T10:49:39.819Z,95759.97
2022-08-03T10:50:43.412Z,95756.69
2022-08-03T10:51:47.942Z,95760.97
2022-08-03T10:52:56.971Z,95760.72
2022-08-03T10:54:01.921Z,95763.03
2022-08-03T10:55:49.344Z,95749.50
2022-08-03T10:57:14.185Z,95750.28
2022-08-03T10:58:53.498Z,95753.59
2022-08-03T11:00:04.085Z,95746.50
2022-08-03T11:01:09.245Z,95752.09
2022-08-03T11:02:13.837Z,95743.16
2022-08-03T11:03:16.818Z,95744.44
2022-08-03T11:04:19.986Z,95742.41
2022-08-03T11:05:29.625Z,95750.56
2022-08-03T11:06:37.379Z,95740.91
2022-08-03T11:07:39.775Z,95743.91
2022-08-03T11:08:42.716Z,95741.88
2022-08-03T11:09:47.566Z,95741.38
2022-08-03T11:10:52.347Z,95744.41
2022-08-03T11:11:55.573Z,95743.13
2022-08-03T11:13:06.988Z,95742.31
2022-08-03T11:14:12.957Z,95746.88
2022-08-03T11:15:33.211Z,95750.38
2022-08-03T11:16:38.788Z,95748.84
2022-08-03T11:18:11.267Z,95744.78
2022-08-03T11:19:15.995Z,95735.06
2022-08-03T11:20:44.512Z,95738.56
2022-08-03T11:21:57.926Z,95743.00
2022-08-03T11:23:01.556Z,95741.50
2022-08-03T11:24:06.795Z,95736.13
2022-08-03T11:25:08.964Z,95732.84
2022-08-03T11:26:31.959Z,95740.75
2022-08-03T11:27:33.970Z,95736.97
2022-08-03T11:28:38.847Z,95743.59
2022-08-03T11:29:54.999Z,95741.84
2022-08-03T11:30:57.934Z,95740.31
2022-08-03T11:31:59.907Z,95732.97
2022-08-03T11:33:04.372Z,95730.69
2022-08-03T11:34:07.223Z,95735.78
2022-08-03T11:35:12.239Z,95742.69
2022-08-03T11:36:16.475Z,95730.16
2022-08-03T11:37:34.384Z,95734.03
2022-08-03T11:39:16.841Z,95737.06
2022-08-03T11:40:35.646Z,95727.84
2022-08-03T11:41:45.251Z,95732.69
2022-08-03T11:42:48.096Z,95739.06
2022-08-03T11:43:51.141Z,95730.88
2022-08-03T11:44:54.227Z,95724.78
2022-08-03T11:45:59.121Z,95723.25
2022-08-03T11:47:01.464Z,95720.78
2022-08-03T11:48:15.986Z,95724.84
2022-08-03T11:49:23.631Z,95722.03
2022-08-03T11:50:26.848Z,95726.91
2022-08-03T11:51:31.880Z,95720.47
2022-08-03T11:52:40.348Z,95725.25
2022-08-03T11:53:44.080Z,95723.72
2022-08-03T11:54:47.822Z,95722.97
2022-08-03T11:56:01.409Z,95717.38
2022-08-03T11:57:03.436Z,95716.63
2022-08-03T11:59:17.704Z,95725.50
2022-08-03T11:59:33.063Z,95715.56
2022-08-03T12:00:35.949Z,95714.06
2022-08-03T12:01:38.831Z,95713.28
2022-08-03T12:02:54.719Z,95721.16
2022-08-03T12:04:05.739Z,95713.75
2022-08-03T12:05:08.073Z,95717.53
2022-08-03T12:06:11.979Z,95716.50
2022-08-03T12:07:13.909Z,95722.09
2022-08-03T12:08:37.925Z,95711.34
2022-08-03T12:09:41.869Z,95704.22
2022-08-03T12:10:50.121Z,95704.22
2022-08-03T12:11:59.616Z,95709.81
2022-08-03T12:13:56.792Z,95710.34
2022-08-03T12:14:48.455Z,95709.59
2022-08-03T12:15:56.806Z,95701.94
2022-08-03T12:16:58.802Z,95699.91
2022-08-03T12:18:02.415Z,95699.13
2022-08-03T12:19:08.091Z,95699.66
2022-08-03T12:20:20.793Z,95703.00
2022-08-03T12:21:57.248Z,95700.72
2022-08-03T12:23:05.277Z,95699.19
2022-08-03T12:24:08.407Z,95696.91
2022-08-03T12:25:39.141Z,95703.50
2022-08-03T12:26:58.423Z,95695.09
2022-08-03T12:28:36.353Z,95693.00
2022-08-03T12:29:39.319Z,95695.81
2022-08-03T12:30:42.197Z,95695.81
2022-08-03T12:31:45.151Z,95694.53
2022-08-03T12:32:47.186Z,95695.06
2022-08-03T12:33:58.999Z,95699.34
2022-08-03T12:35:04.554Z,95704.22
2022-08-03T12:36:09.191Z,95695.28
2022-08-03T12:37:20.277Z,95691.19
2022-08-03T12:38:25.333Z,95692.16
2022-08-03T12:39:30.964Z,95692.94
2022-08-03T12:40:33.369Z,95690.91
2022-08-03T12:41:38.639Z,95688.09
2022-08-03T12:42:40.812Z,95683.75
2022-08-03T12:43:50.081Z,95693.63
2022-08-03T12:44:54.712Z,95686.13
2022-08-03T12:46:10.473Z,95685.56
2022-08-03T12:47:12.651Z,95691.06
2022-08-03T12:48:15.808Z,95690.84
2022-08-03T12:49:19.510Z,95690.84
2022-08-03T12:50:27.864Z,95691.66
2022-08-03T12:51:33.200Z,95689.72
2022-08-03T12:52:45.035Z,95679.84
2022-08-03T12:53:52.531Z,95677.88
2022-08-03T12:54:57.137Z,95673.84
2022-08-03T12:56:05.614Z,95682.56
2022-08-03T12:57:11.277Z,95679.53
2022-08-03T12:58:33.488Z,95689.00
2022-08-03T12:59:40.702Z,95682.09
2022-08-03T13:00:55.328Z,95680.28
2022-08-03T13:01:59.143Z,95683.09
2022-08-03T13:03:39.588Z,95678.75
2022-08-03T13:04:30.040Z,95677.47
2022-08-03T13:05:46.102Z,95686.41
2022-08-03T13:07:02.491Z,95678.00
2022-08-03T13:08:18.174Z,95682.00